sensor_id;sensor_type;location;lat;lon;timestamp;pressure;altitude;pressure_sealevel;temperature;humidity
7668;BME280;3876;42.204;24.686;2024-01-30T00:00:18;101628.88;;;2.29;nan
7668;BME280;3876;42.204;24.686;2024-01-30T00:02:46;101633.84;;;2.26;nan
7668;BME280;3876;42.204;24.686;2024-01-30T00:05:13;101636.25;;;2.23;nan
7668;BME280;3876;42.204;24.686;2024-01-30T00:07:40;101620.56;;;2.10;nan
7668;BME280;3876;42.204;24.686;2024-01-30T00:10:07;101638.78;;;2.23;nan
7668;BME280;3876;42.204;24.686;2024-01-30T00:12:34;101634.16;;;2.13;nan
7668;BME280;3876;42.204;24.686;2024-01-30T00:15:00;101634.16;;;2.13;nan
7668;BME280;3876;42.204;24.686;2024-01-30T00:17:29;101635.03;;;2.13;nan
7668;BME280;3876;42.204;24.686;2024-01-30T00:19:57;101641.75;;;2.13;nan
7668;BME280;3876;42.204;24.686;2024-01-30T00:22:24;101640.00;;;2.11;nan
7668;BME280;3876;42.204;24.686;2024-01-30T00:24:51;101644.31;;;2.14;nan
7668;BME280;3876;42.204;24.686;2024-01-30T00:27:17;101635.84;;;2.13;nan
7668;BME280;3876;42.204;24.686;2024-01-30T00:29:44;101623.78;;;2.06;nan
7668;BME280;3876;42.204;24.686;2024-01-30T00:32:11;101637.34;;;2.08;nan
7668;BME280;3876;42.204;24.686;2024-01-30T00:34:37;101635.50;;;2.04;nan
7668;BME280;3876;42.204;24.686;2024-01-30T00:37:05;101640.56;;;2.04;nan
7668;BME280;3876;42.204;24.686;2024-01-30T00:39:32;101633.66;;;2.00;nan
7668;BME280;3876;42.204;24.686;2024-01-30T00:42:00;101636.00;;;1.96;nan
7668;BME280;3876;42.204;24.686;2024-01-30T00:44:27;101643.41;;;1.91;nan
7668;BME280;3876;42.204;24.686;2024-01-30T00:46:54;101639.22;;;1.92;nan
7668;BME280;3876;42.204;24.686;2024-01-30T00:49:20;101641.56;;;1.87;nan
7668;BME280;3876;42.204;24.686;2024-01-30T00:51:47;101644.78;;;1.83;nan
7668;BME280;3876;42.204;24.686;2024-01-30T00:54:15;101634.53;;;1.80;nan
7668;BME280;3876;42.204;24.686;2024-01-30T00:56:42;101647.84;;;1.76;nan
7668;BME280;3876;42.204;24.686;2024-01-30T00:59:09;101642.41;;;1.67;nan
7668;BME280;3876;42.204;24.686;2024-01-30T01:01:36;101643.03;;;1.62;nan
7668;BME280;3876;42.204;24.686;2024-01-30T01:04:03;101639.50;;;1.58;nan
7668;BME280;3876;42.204;24.686;2024-01-30T01:06:29;101636.00;;;1.54;nan
7668;BME280;3876;42.204;24.686;2024-01-30T01:08:56;101637.66;;;1.54;nan
7668;BME280;3876;42.204;24.686;2024-01-30T01:11:24;101636.56;;;1.49;nan
7668;BME280;3876;42.204;24.686;2024-01-30T01:13:51;101638.19;;;1.47;nan
7668;BME280;3876;42.204;24.686;2024-01-30T01:16:17;101631.53;;;1.49;nan
7668;BME280;3876;42.204;24.686;2024-01-30T01:18:44;101630.81;;;1.51;nan
7668;BME280;3876;42.204;24.686;2024-01-30T01:21:11;101628.19;;;1.50;nan
7668;BME280;3876;42.204;24.686;2024-01-30T01:23:37;101633.38;;;1.53;nan
7668;BME280;3876;42.204;24.686;2024-01-30T01:26:04;101626.66;;;1.53;nan
7668;BME280;3876;42.204;24.686;2024-01-30T01:28:32;101623.28;;;1.53;nan
7668;BME280;3876;42.204;24.686;2024-01-30T01:30:59;101627.22;;;1.46;nan
7668;BME280;3876;42.204;24.686;2024-01-30T01:33:30;101620.38;;;1.44;nan
7668;BME280;3876;42.204;24.686;2024-01-30T01:35:57;101614.41;;;1.42;nan
7668;BME280;3876;42.204;24.686;2024-01-30T01:38:24;101615.72;;;1.34;nan
7668;BME280;3876;42.204;24.686;2024-01-30T01:40:51;101610.66;;;1.34;nan
7668;BME280;3876;42.204;24.686;2024-01-30T01:43:17;101612.28;;;1.32;nan
7668;BME280;3876;42.204;24.686;2024-01-30T01:45:46;101605.63;;;1.34;nan
7668;BME280;3876;42.204;24.686;2024-01-30T01:48:12;101610.53;;;1.31;nan
7668;BME280;3876;42.204;24.686;2024-01-30T01:50:40;101614.72;;;1.30;nan
7668;BME280;3876;42.204;24.686;2024-01-30T01:53:08;101613.47;;;1.21;nan
7668;BME280;3876;42.204;24.686;2024-01-30T01:55:35;101624.97;;;1.14;nan
7668;BME280;3876;42.204;24.686;2024-01-30T01:58:02;101620.59;;;1.10;nan
7668;BME280;3876;42.204;24.686;2024-01-30T02:00:29;101629.84;;;1.10;nan
7668;BME280;3876;42.204;24.686;2024-01-30T02:02:58;101622.19;;;1.08;nan
7668;BME280;3876;42.204;24.686;2024-01-30T02:05:26;101621.19;;;1.04;nan
7668;BME280;3876;42.204;24.686;2024-01-30T02:07:53;101621.19;;;1.04;nan
7668;BME280;3876;42.204;24.686;2024-01-30T02:10:20;101621.06;;;1.01;nan
7668;BME280;3876;42.204;24.686;2024-01-30T02:12:48;101604.50;;;0.89;nan
7668;BME280;3876;42.204;24.686;2024-01-30T02:15:14;101616.34;;;0.90;nan
7668;BME280;3876;42.204;24.686;2024-01-30T02:17:41;101622.84;;;0.85;nan
7668;BME280;3876;42.204;24.686;2024-01-30T02:20:11;101429.94;;;-0.34;nan
7668;BME280;3876;42.204;24.686;2024-01-30T02:22:40;101621.72;;;0.78;nan
7668;BME280;3876;42.204;24.686;2024-01-30T02:25:07;101613.94;;;0.74;nan
7668;BME280;3876;42.204;24.686;2024-01-30T02:27:34;101633.69;;;0.82;nan
7668;BME280;3876;42.204;24.686;2024-01-30T02:30:01;101634.31;;;0.78;nan
7668;BME280;3876;42.204;24.686;2024-01-30T02:32:28;101630.78;;;0.75;nan
7668;BME280;3876;42.204;24.686;2024-01-30T02:34:54;101635.00;;;0.74;nan
7668;BME280;3876;42.204;24.686;2024-01-30T02:37:21;101639.88;;;0.71;nan
7668;BME280;3876;42.204;24.686;2024-01-30T02:39:49;101631.41;;;0.69;nan
7668;BME280;3876;42.204;24.686;2024-01-30T02:42:16;101633.13;;;0.70;nan
7668;BME280;3876;42.204;24.686;2024-01-30T02:44:43;101629.66;;;0.68;nan
7668;BME280;3876;42.204;24.686;2024-01-30T02:47:09;101629.53;;;0.65;nan
7668;BME280;3876;42.204;24.686;2024-01-30T02:49:36;101632.88;;;0.64;nan
7668;BME280;3876;42.204;24.686;2024-01-30T02:52:03;101634.44;;;0.62;nan
7668;BME280;3876;42.204;24.686;2024-01-30T02:54:30;101631.78;;;0.59;nan
7668;BME280;3876;42.204;24.686;2024-01-30T02:56:58;101630.84;;;0.57;nan
7668;BME280;3876;42.204;24.686;2024-01-30T02:59:25;101642.69;;;0.58;nan
7668;BME280;3876;42.204;24.686;2024-01-30T03:01:51;101650.31;;;0.60;nan
7668;BME280;3876;42.204;24.686;2024-01-30T03:04:18;101644.25;;;0.56;nan
7668;BME280;3876;42.204;24.686;2024-01-30T03:06:45;101644.84;;;0.50;nan
7668;BME280;3876;42.204;24.686;2024-01-30T03:09:12;101640.66;;;0.51;nan
7668;BME280;3876;42.204;24.686;2024-01-30T03:11:39;101624.81;;;0.36;nan
7668;BME280;3876;42.204;24.686;2024-01-30T03:14:07;101626.03;;;0.44;nan
7668;BME280;3876;42.204;24.686;2024-01-30T03:16:36;101628.84;;;0.50;nan
7668;BME280;3876;42.204;24.686;2024-01-30T03:19:03;101634.03;;;0.53;nan
7668;BME280;3876;42.204;24.686;2024-01-30T03:21:30;101629.75;;;0.52;nan
7668;BME280;3876;42.204;24.686;2024-01-30T03:23:57;101635.63;;;0.51;nan
7668;BME280;3876;42.204;24.686;2024-01-30T03:26:24;101628.06;;;0.51;nan
7668;BME280;3876;42.204;24.686;2024-01-30T03:28:51;101628.97;;;0.53;nan
7668;BME280;3876;42.204;24.686;2024-01-30T03:31:19;101621.91;;;0.46;nan
7668;BME280;3876;42.204;24.686;2024-01-30T03:33:46;101628.84;;;0.50;nan
7668;BME280;3876;42.204;24.686;2024-01-30T03:36:12;101633.88;;;0.50;nan
7668;BME280;3876;42.204;24.686;2024-01-30T03:38:39;101634.63;;;0.47;nan
7668;BME280;3876;42.204;24.686;2024-01-30T03:41:07;101629.84;;;0.36;nan
7668;BME280;3876;42.204;24.686;2024-01-30T03:43:34;101623.38;;;0.41;nan
7668;BME280;3876;42.204;24.686;2024-01-30T03:46:02;101621.63;;;0.40;nan
7668;BME280;3876;42.204;24.686;2024-01-30T03:48:30;101618.31;;;0.41;nan
7668;BME280;3876;42.204;24.686;2024-01-30T03:50:57;101620.06;;;0.42;nan
7668;BME280;3876;42.204;24.686;2024-01-30T03:53:23;101625.13;;;0.42;nan
7668;BME280;3876;42.204;24.686;2024-01-30T03:55:50;101617.47;;;0.40;nan
7668;BME280;3876;42.204;24.686;2024-01-30T03:58:17;101616.59;;;0.40;nan
7668;BME280;3876;42.204;24.686;2024-01-30T04:00:43;101636.00;;;0.41;nan
7668;BME280;3876;42.204;24.686;2024-01-30T04:03:10;101634.97;;;0.20;nan
7668;BME280;3876;42.204;24.686;2024-01-30T04:05:38;101635.84;;;0.03;nan
7668;BME280;3876;42.204;24.686;2024-01-30T04:08:05;101647.84;;;-0.10;nan
7668;BME280;3876;42.204;24.686;2024-01-30T04:10:32;101647.13;;;-0.25;nan
7668;BME280;3876;42.204;24.686;2024-01-30T04:12:59;101649.34;;;-0.31;nan
7668;BME280;3876;42.204;24.686;2024-01-30T04:15:26;101642.56;;;-0.32;nan
7668;BME280;3876;42.204;24.686;2024-01-30T04:17:53;101637.50;;;-0.32;nan
7668;BME280;3876;42.204;24.686;2024-01-30T04:20:20;101638.25;;;-0.34;nan
7668;BME280;3876;42.204;24.686;2024-01-30T04:22:48;101638.03;;;-0.39;nan
7668;BME280;3876;42.204;24.686;2024-01-30T04:25:15;101626.06;;;-0.43;nan
7668;BME280;3876;42.204;24.686;2024-01-30T04:27:41;101634.09;;;-0.50;nan
7668;BME280;3876;42.204;24.686;2024-01-30T04:30:09;101635.44;;;-0.57;nan
7668;BME280;3876;42.204;24.686;2024-01-30T04:32:36;101619.34;;;-0.76;nan
7668;BME280;3876;42.204;24.686;2024-01-30T04:35:03;101642.59;;;-0.64;nan
7668;BME280;3876;42.204;24.686;2024-01-30T04:37:30;101645.13;;;-0.64;nan
7668;BME280;3876;42.204;24.686;2024-01-30T04:39:58;101647.16;;;-0.57;nan
7668;BME280;3876;42.204;24.686;2024-01-30T04:42:25;101653.38;;;-0.50;nan
7668;BME280;3876;42.204;24.686;2024-01-30T04:44:52;101649.47;;;-0.45;nan
7668;BME280;3876;42.204;24.686;2024-01-30T04:47:18;101647.94;;;-0.42;nan
7668;BME280;3876;42.204;24.686;2024-01-30T04:49:45;101656.59;;;-0.37;nan
7668;BME280;3876;42.204;24.686;2024-01-30T04:52:12;101655.16;;;-0.32;nan
7668;BME280;3876;42.204;24.686;2024-01-30T04:54:39;101648.25;;;-0.36;nan
7668;BME280;3876;42.204;24.686;2024-01-30T04:57:07;101665.88;;;-0.20;nan
7668;BME280;3876;42.204;24.686;2024-01-30T04:59:37;101667.97;;;-0.11;nan
7668;BME280;3876;42.204;24.686;2024-01-30T05:02:04;101669.91;;;-0.06;nan
7668;BME280;3876;42.204;24.686;2024-01-30T05:04:30;101669.91;;;-0.06;nan
7668;BME280;3876;42.204;24.686;2024-01-30T05:06:57;101667.53;;;-0.03;nan
7668;BME280;3876;42.204;24.686;2024-01-30T05:09:24;101673.69;;;0.03;nan
7668;BME280;3876;42.204;24.686;2024-01-30T05:11:50;101667.03;;;0.05;nan
7668;BME280;3876;42.204;24.686;2024-01-30T05:14:18;101674.47;;;0.02;nan
7668;BME280;3876;42.204;24.686;2024-01-30T05:16:45;101654.63;;;-0.09;nan
7668;BME280;3876;42.204;24.686;2024-01-30T05:19:13;101678.00;;;0.05;nan
7668;BME280;3876;42.204;24.686;2024-01-30T05:21:39;101677.41;;;0.11;nan
7668;BME280;3876;42.204;24.686;2024-01-30T05:24:07;101669.66;;;0.06;nan
7668;BME280;3876;42.204;24.686;2024-01-30T05:26:35;101677.56;;;0.14;nan
7668;BME280;3876;42.204;24.686;2024-01-30T05:29:02;101671.00;;;0.17;nan
7668;BME280;3876;42.204;24.686;2024-01-30T05:31:30;101667.75;;;0.20;nan
7668;BME280;3876;42.204;24.686;2024-01-30T05:33:57;101668.63;;;0.20;nan
7668;BME280;3876;42.204;24.686;2024-01-30T05:36:24;101661.00;;;0.19;nan
7668;BME280;3876;42.204;24.686;2024-01-30T05:38:50;101641.81;;;0.05;nan
7668;BME280;3876;42.204;24.686;2024-01-30T05:41:17;101667.47;;;0.14;nan
7668;BME280;3876;42.204;24.686;2024-01-30T05:43:44;101668.44;;;0.16;nan
7668;BME280;3876;42.204;24.686;2024-01-30T05:46:11;101663.09;;;0.10;nan
7668;BME280;3876;42.204;24.686;2024-01-30T05:48:39;101678.53;;;0.16;nan
7668;BME280;3876;42.204;24.686;2024-01-30T05:51:07;101682.75;;;0.17;nan
7668;BME280;3876;42.204;24.686;2024-01-30T05:53:33;101675.28;;;0.18;nan
7668;BME280;3876;42.204;24.686;2024-01-30T05:56:01;101674.41;;;0.18;nan
7668;BME280;3876;42.204;24.686;2024-01-30T05:58:28;101672.81;;;0.20;nan
7668;BME280;3876;42.204;24.686;2024-01-30T06:00:56;101675.13;;;0.15;nan
7668;BME280;3876;42.204;24.686;2024-01-30T06:03:23;101669.22;;;0.15;nan
7668;BME280;3876;42.204;24.686;2024-01-30T06:05:51;101666.78;;;0.16;nan
7668;BME280;3876;42.204;24.686;2024-01-30T06:08:18;101657.38;;;0.14;nan
7668;BME280;3876;42.204;24.686;2024-01-30T06:10:45;101671.66;;;0.31;nan
7668;BME280;3876;42.204;24.686;2024-01-30T06:13:13;101674.72;;;0.41;nan
7668;BME280;3876;42.204;24.686;2024-01-30T06:15:39;101677.66;;;0.50;nan
7668;BME280;3876;42.204;24.686;2024-01-30T06:18:06;101685.66;;;0.60;nan
7668;BME280;3876;42.204;24.686;2024-01-30T06:20:33;101665.97;;;0.52;nan
7668;BME280;3876;42.204;24.686;2024-01-30T06:23:01;101696.16;;;0.69;nan
7668;BME280;3876;42.204;24.686;2024-01-30T06:25:27;101696.75;;;0.63;nan
7668;BME280;3876;42.204;24.686;2024-01-30T06:27:54;101686.50;;;0.60;nan
7668;BME280;3876;42.204;24.686;2024-01-30T06:30:21;101691.69;;;0.63;nan
7668;BME280;3876;42.204;24.686;2024-01-30T06:32:48;101691.69;;;0.63;nan
7668;BME280;3876;42.204;24.686;2024-01-30T06:35:14;101684.22;;;0.65;nan
7668;BME280;3876;42.204;24.686;2024-01-30T06:37:42;101697.63;;;0.64;nan
7668;BME280;3876;42.204;24.686;2024-01-30T06:40:11;101690.09;;;0.65;nan
7668;BME280;3876;42.204;24.686;2024-01-30T06:42:38;101683.19;;;0.61;nan
7668;BME280;3876;42.204;24.686;2024-01-30T06:45:06;101684.28;;;0.66;nan
7668;BME280;3876;42.204;24.686;2024-01-30T06:47:33;101688.25;;;0.61;nan
7668;BME280;3876;42.204;24.686;2024-01-30T06:50:00;101694.31;;;0.65;nan
7668;BME280;3876;42.204;24.686;2024-01-30T06:52:27;101691.06;;;0.67;nan
7668;BME280;3876;42.204;24.686;2024-01-30T06:54:54;101689.19;;;0.63;nan
7668;BME280;3876;42.204;24.686;2024-01-30T06:57:22;101689.03;;;0.60;nan
7668;BME280;3876;42.204;24.686;2024-01-30T06:59:49;101691.56;;;0.60;nan
7668;BME280;3876;42.204;24.686;2024-01-30T07:02:15;101697.75;;;0.67;nan
7668;BME280;3876;42.204;24.686;2024-01-30T07:04:42;101697.03;;;0.69;nan
7668;BME280;3876;42.204;24.686;2024-01-30T07:07:09;101699.91;;;0.77;nan
7668;BME280;3876;42.204;24.686;2024-01-30T07:09:38;101688.34;;;0.82;nan
7668;BME280;3876;42.204;24.686;2024-01-30T07:12:05;101691.09;;;0.86;nan
7668;BME280;3876;42.204;24.686;2024-01-30T07:14:34;101701.47;;;0.92;nan
7668;BME280;3876;42.204;24.686;2024-01-30T07:17:02;101696.47;;;0.94;nan
7668;BME280;3876;42.204;24.686;2024-01-30T07:19:28;101696.56;;;0.95;nan
7668;BME280;3876;42.204;24.686;2024-01-30T07:21:55;101698.44;;;0.99;nan
7668;BME280;3876;42.204;24.686;2024-01-30T07:24:22;101695.91;;;0.99;nan
7668;BME280;3876;42.204;24.686;2024-01-30T07:26:49;101692.50;;;0.99;nan
7668;BME280;3876;42.204;24.686;2024-01-30T07:29:15;101688.09;;;0.95;nan
7668;BME280;3876;42.204;24.686;2024-01-30T07:31:43;101678.47;;;0.86;nan
7668;BME280;3876;42.204;24.686;2024-01-30T07:34:11;101698.56;;;1.02;nan
7668;BME280;3876;42.204;24.686;2024-01-30T07:36:38;101696.22;;;1.07;nan
7668;BME280;3876;42.204;24.686;2024-01-30T07:39:05;101688.59;;;1.05;nan
7668;BME280;3876;42.204;24.686;2024-01-30T07:41:32;101707.59;;;1.17;nan
7668;BME280;3876;42.204;24.686;2024-01-30T07:43:58;101695.31;;;1.24;nan
7668;BME280;3876;42.204;24.686;2024-01-30T07:46:25;101701.97;;;1.22;nan
7668;BME280;3876;42.204;24.686;2024-01-30T07:48:53;101703.41;;;1.17;nan
7668;BME280;3876;42.204;24.686;2024-01-30T07:51:21;101691.47;;;1.13;nan
7668;BME280;3876;42.204;24.686;2024-01-30T07:53:47;101697.63;;;1.20;nan
7668;BME280;3876;42.204;24.686;2024-01-30T07:56:14;101704.44;;;1.21;nan
7668;BME280;3876;42.204;24.686;2024-01-30T07:58:41;101694.31;;;1.21;nan
7668;BME280;3876;42.204;24.686;2024-01-30T08:01:08;101700.97;;;1.19;nan
7668;BME280;3876;42.204;24.686;2024-01-30T08:03:34;101703.56;;;1.20;nan
7668;BME280;3876;42.204;24.686;2024-01-30T08:06:04;101700.38;;;1.24;nan
7668;BME280;3876;42.204;24.686;2024-01-30T08:08:30;101699.63;;;1.27;nan
7668;BME280;3876;42.204;24.686;2024-01-30T08:10:57;101692.13;;;1.28;nan
7668;BME280;3876;42.204;24.686;2024-01-30T08:13:24;101694.81;;;1.31;nan
7668;BME280;3876;42.204;24.686;2024-01-30T08:15:50;101695.13;;;1.39;nan
7668;BME280;3876;42.204;24.686;2024-01-30T08:18:17;101700.47;;;1.45;nan
7668;BME280;3876;42.204;24.686;2024-01-30T08:20:44;101698.19;;;1.51;nan
7668;BME280;3876;42.204;24.686;2024-01-30T08:23:12;101697.53;;;1.55;nan
7668;BME280;3876;42.204;24.686;2024-01-30T08:25:38;101695.38;;;1.64;nan
7668;BME280;3876;42.204;24.686;2024-01-30T08:28:05;101699.63;;;1.65;nan
7668;BME280;3876;42.204;24.686;2024-01-30T08:30:32;101678.44;;;1.62;nan
7668;BME280;3876;42.204;24.686;2024-01-30T08:32:59;101703.34;;;1.73;nan
7668;BME280;3876;42.204;24.686;2024-01-30T08:35:26;101698.41;;;1.76;nan
7668;BME280;3876;42.204;24.686;2024-01-30T08:37:53;101702.06;;;1.83;nan
7668;BME280;3876;42.204;24.686;2024-01-30T08:40:21;101699.78;;;1.89;nan
7668;BME280;3876;42.204;24.686;2024-01-30T08:42:48;101701.13;;;2.00;nan
7668;BME280;3876;42.204;24.686;2024-01-30T08:45:16;101690.56;;;2.10;nan
7668;BME280;3876;42.204;24.686;2024-01-30T08:47:42;101687.78;;;2.25;nan
7668;BME280;3876;42.204;24.686;2024-01-30T08:50:09;101694.72;;;2.30;nan
7668;BME280;3876;42.204;24.686;2024-01-30T08:52:36;101695.84;;;2.37;nan
7668;BME280;3876;42.204;24.686;2024-01-30T08:55:04;101696.78;;;2.39;nan
7668;BME280;3876;42.204;24.686;2024-01-30T08:57:32;101697.69;;;2.41;nan
7668;BME280;3876;42.204;24.686;2024-01-30T08:59:59;101689.44;;;2.45;nan
7668;BME280;3876;42.204;24.686;2024-01-30T09:02:29;101694.06;;;2.55;nan
7668;BME280;3876;42.204;24.686;2024-01-30T09:04:56;101690.91;;;2.62;nan
7668;BME280;3876;42.204;24.686;2024-01-30T09:07:23;101675.03;;;2.66;nan
7668;BME280;3876;42.204;24.686;2024-01-30T09:09:50;101682.41;;;2.82;nan
7668;BME280;3876;42.204;24.686;2024-01-30T09:12:16;101691.19;;;2.90;nan
7668;BME280;3876;42.204;24.686;2024-01-30T09:14:44;101693.00;;;2.94;nan
7668;BME280;3876;42.204;24.686;2024-01-30T09:17:11;101690.66;;;2.99;nan
7668;BME280;3876;42.204;24.686;2024-01-30T09:19:38;101687.34;;;3.01;nan
7668;BME280;3876;42.204;24.686;2024-01-30T09:22:05;101674.78;;;3.04;nan
7668;BME280;3876;42.204;24.686;2024-01-30T09:24:31;101676.16;;;3.18;nan
7668;BME280;3876;42.204;24.686;2024-01-30T09:26:58;101677.19;;;3.24;nan
7668;BME280;3876;42.204;24.686;2024-01-30T09:29:25;101680.06;;;3.33;nan
7668;BME280;3876;42.204;24.686;2024-01-30T09:31:54;101664.03;;;3.34;nan
7668;BME280;3876;42.204;24.686;2024-01-30T09:34:20;101659.16;;;3.40;nan
7668;BME280;3876;42.204;24.686;2024-01-30T09:36:47;101664.56;;;3.49;nan
7668;BME280;3876;42.204;24.686;2024-01-30T09:39:14;101667.44;;;3.58;nan
7668;BME280;3876;42.204;24.686;2024-01-30T09:41:49;101656.44;;;3.59;nan
7668;BME280;3876;42.204;24.686;2024-01-30T09:44:19;101670.38;;;3.70;nan
7668;BME280;3876;42.204;24.686;2024-01-30T09:46:47;101650.28;;;3.76;nan
7668;BME280;3876;42.204;24.686;2024-01-30T09:49:15;101657.47;;;3.89;nan
7668;BME280;3876;42.204;24.686;2024-01-30T09:51:44;101649.16;;;3.93;nan
7668;BME280;3876;42.204;24.686;2024-01-30T09:54:13;101655.22;;;3.98;nan
7668;BME280;3876;42.204;24.686;2024-01-30T09:56:40;101646.03;;;4.00;nan
7668;BME280;3876;42.204;24.686;2024-01-30T09:59:07;101641.13;;;4.06;nan
7668;BME280;3876;42.204;24.686;2024-01-30T10:01:35;101643.09;;;4.15;nan
7668;BME280;3876;42.204;24.686;2024-01-30T10:04:03;101628.75;;;4.17;nan
7668;BME280;3876;42.204;24.686;2024-01-30T10:06:32;101632.44;;;4.27;nan
7668;BME280;3876;42.204;24.686;2024-01-30T10:08:58;101635.19;;;4.33;nan
7668;BME280;3876;42.204;24.686;2024-01-30T10:11:25;101629.56;;;4.43;nan
7668;BME280;3876;42.204;24.686;2024-01-30T10:13:52;101630.72;;;4.52;nan
7668;BME280;3876;42.204;24.686;2024-01-30T10:16:18;101635.81;;;4.54;nan
7668;BME280;3876;42.204;24.686;2024-01-30T10:18:45;101631.00;;;4.63;nan
7668;BME280;3876;42.204;24.686;2024-01-30T10:21:12;101627.50;;;4.58;nan
7668;BME280;3876;42.204;24.686;2024-01-30T10:23:40;101627.75;;;4.67;nan
7668;BME280;3876;42.204;24.686;2024-01-30T10:26:07;101613.47;;;4.70;nan
7668;BME280;3876;42.204;24.686;2024-01-30T10:28:34;101635.00;;;4.83;nan
7668;BME280;3876;42.204;24.686;2024-01-30T10:31:01;101631.94;;;4.95;nan
7668;BME280;3876;42.204;24.686;2024-01-30T10:33:29;101630.34;;;4.98;nan
7668;BME280;3876;42.204;24.686;2024-01-30T10:36:00;101636.34;;;5.00;nan
7668;BME280;3876;42.204;24.686;2024-01-30T10:38:28;101627.00;;;4.99;nan
7668;BME280;3876;42.204;24.686;2024-01-30T10:40:58;101639.88;;;5.05;nan
7668;BME280;3876;42.204;24.686;2024-01-30T10:43:30;101638.03;;;5.00;nan
7668;BME280;3876;42.204;24.686;2024-01-30T10:46:03;101627.81;;;4.98;nan
7668;BME280;3876;42.204;24.686;2024-01-30T10:48:32;101632.53;;;5.16;nan
7668;BME280;3876;42.204;24.686;2024-01-30T10:51:05;101627.66;;;5.23;nan
7668;BME280;3876;42.204;24.686;2024-01-30T10:53:33;101631.19;;;5.28;nan
7668;BME280;3876;42.204;24.686;2024-01-30T10:56:03;101632.16;;;5.34;nan
7668;BME280;3876;42.204;24.686;2024-01-30T10:58:30;101629.69;;;5.35;nan
7668;BME280;3876;42.204;24.686;2024-01-30T11:00:58;101628.03;;;5.37;nan
7668;BME280;3876;42.204;24.686;2024-01-30T11:03:25;101609.28;;;5.34;nan
7668;BME280;3876;42.204;24.686;2024-01-30T11:05:52;101614.78;;;5.49;nan
7668;BME280;3876;42.204;24.686;2024-01-30T11:08:25;101621.69;;;5.54;nan
7668;BME280;3876;42.204;24.686;2024-01-30T11:10:55;101617.34;;;5.50;nan
7668;BME280;3876;42.204;24.686;2024-01-30T11:13:27;101613.94;;;5.50;nan
7668;BME280;3876;42.204;24.686;2024-01-30T11:16:00;101614.84;;;5.52;nan
7668;BME280;3876;42.204;24.686;2024-01-30T11:18:29;101609.09;;;5.59;nan
7668;BME280;3876;42.204;24.686;2024-01-30T11:20:56;101607.25;;;5.53;nan
7668;BME280;3876;42.204;24.686;2024-01-30T11:23:24;101603.09;;;5.57;nan
7668;BME280;3876;42.204;24.686;2024-01-30T11:25:52;101587.59;;;5.48;nan
7668;BME280;3876;42.204;24.686;2024-01-30T11:28:21;101603.75;;;5.48;nan
7668;BME280;3876;42.204;24.686;2024-01-30T11:30:49;101606.28;;;5.48;nan
7668;BME280;3876;42.204;24.686;2024-01-30T11:33:28;101603.09;;;5.57;nan
7668;BME280;3876;42.204;24.686;2024-01-30T11:35:57;101598.16;;;5.63;nan
7668;BME280;3876;42.204;24.686;2024-01-30T11:38:25;101599.97;;;5.67;nan
7668;BME280;3876;42.204;24.686;2024-01-30T11:40:53;101598.22;;;5.66;nan
7668;BME280;3876;42.204;24.686;2024-01-30T11:43:20;101593.84;;;5.59;nan
7668;BME280;3876;42.204;24.686;2024-01-30T11:45:47;101592.84;;;5.54;nan
7668;BME280;3876;42.204;24.686;2024-01-30T11:48:15;101581.94;;;5.59;nan
7668;BME280;3876;42.204;24.686;2024-01-30T11:50:43;101577.41;;;5.80;nan
7668;BME280;3876;42.204;24.686;2024-01-30T11:53:10;101576.84;;;5.92;nan
7668;BME280;3876;42.204;24.686;2024-01-30T11:55:37;101566.72;;;5.95;nan
7668;BME280;3876;42.204;24.686;2024-01-30T11:58:04;101575.63;;;6.12;nan
7668;BME280;3876;42.204;24.686;2024-01-30T12:00:31;101578.22;;;6.14;nan
7668;BME280;3876;42.204;24.686;2024-01-30T12:02:58;101565.56;;;6.18;nan
7668;BME280;3876;42.204;24.686;2024-01-30T12:05:28;101562.34;;;6.25;nan
7668;BME280;3876;42.204;24.686;2024-01-30T12:07:54;101560.09;;;6.41;nan
7668;BME280;3876;42.204;24.686;2024-01-30T12:10:24;101554.31;;;6.48;nan
7668;BME280;3876;42.204;24.686;2024-01-30T12:12:51;101545.97;;;6.55;nan
7668;BME280;3876;42.204;24.686;2024-01-30T12:15:18;101546.03;;;6.58;nan
7668;BME280;3876;42.204;24.686;2024-01-30T12:17:48;101487.72;;;6.29;nan
7668;BME280;3876;42.204;24.686;2024-01-30T12:20:17;101516.91;;;6.45;nan
7668;BME280;3876;42.204;24.686;2024-01-30T12:22:47;101524.94;;;6.65;nan
7668;BME280;3876;42.204;24.686;2024-01-30T12:25:15;101517.53;;;6.77;nan
7668;BME280;3876;42.204;24.686;2024-01-30T12:27:43;101511.06;;;6.94;nan
7668;BME280;3876;42.204;24.686;2024-01-30T12:30:13;101504.44;;;7.05;nan
7668;BME280;3876;42.204;24.686;2024-01-30T12:32:41;101485.81;;;7.09;nan
7668;BME280;3876;42.204;24.686;2024-01-30T12:35:09;101501.31;;;7.21;nan
7668;BME280;3876;42.204;24.686;2024-01-30T12:37:36;101498.19;;;7.37;nan
7668;BME280;3876;42.204;24.686;2024-01-30T12:40:06;101506.34;;;7.15;nan
7668;BME280;3876;42.204;24.686;2024-01-30T12:42:33;101498.22;;;6.90;nan
7668;BME280;3876;42.204;24.686;2024-01-30T12:45:01;101509.50;;;7.01;nan
7668;BME280;3876;42.204;24.686;2024-01-30T12:47:28;101511.28;;;7.06;nan
7668;BME280;3876;42.204;24.686;2024-01-30T12:49:55;101491.63;;;7.01;nan
7668;BME280;3876;42.204;24.686;2024-01-30T12:52:22;101511.13;;;6.97;nan
7668;BME280;3876;42.204;24.686;2024-01-30T12:54:49;101505.09;;;6.94;nan
7668;BME280;3876;42.204;24.686;2024-01-30T12:57:17;101496.69;;;6.98;nan
7668;BME280;3876;42.204;24.686;2024-01-30T12:59:45;101497.75;;;7.10;nan
7668;BME280;3876;42.204;24.686;2024-01-30T13:02:12;101492.31;;;6.92;nan
7668;BME280;3876;42.204;24.686;2024-01-30T13:04:39;101492.84;;;6.74;nan
7668;BME280;3876;42.204;24.686;2024-01-30T13:07:06;101493.88;;;6.84;nan
7668;BME280;3876;42.204;24.686;2024-01-30T13:09:33;101495.66;;;6.88;nan
7668;BME280;3876;42.204;24.686;2024-01-30T13:11:59;101481.94;;;6.83;nan
7668;BME280;3876;42.204;24.686;2024-01-30T13:14:27;101486.03;;;6.73;nan
7668;BME280;3876;42.204;24.686;2024-01-30T13:16:54;101488.47;;;6.69;nan
7668;BME280;3876;42.204;24.686;2024-01-30T13:19:21;101490.25;;;6.71;nan
7668;BME280;3876;42.204;24.686;2024-01-30T13:21:48;101481.63;;;6.65;nan
7668;BME280;3876;42.204;24.686;2024-01-30T13:24:14;101463.91;;;6.71;nan
7668;BME280;3876;42.204;24.686;2024-01-30T13:26:42;101476.16;;;6.92;nan
7668;BME280;3876;42.204;24.686;2024-01-30T13:29:09;101478.06;;;7.03;nan
7668;BME280;3876;42.204;24.686;2024-01-30T13:31:37;101472.81;;;6.96;nan